createdAt,value
2023-02-01T11:10:25.683Z,101971.83
2023-02-01T11:11:25.855Z,101971.23
2023-02-01T11:12:26.909Z,101972.06
2023-02-01T11:14:00.971Z,101971.43
2023-02-01T11:15:00.964Z,101970.25
2023-02-01T11:16:01.832Z,101970.33
2023-02-01T11:17:01.990Z,101970.61
2023-02-01T11:18:02.710Z,101971.17
2023-02-01T11:19:03.351Z,101971.77
2023-02-01T11:20:03.995Z,101972.17
2023-02-01T11:21:04.866Z,101972.26
2023-02-01T11:22:09.795Z,101972.52
2023-02-01T11:23:11.551Z,101972.74
2023-02-01T11:24:06.178Z,101973.43
2023-02-01T11:26:18.694Z,101981.41
2023-02-01T11:27:26.879Z,101980.48
2023-02-01T11:28:19.872Z,101980.58
2023-02-01T11:29:20.540Z,101979.98
2023-02-01T11:30:20.801Z,101979.91
2023-02-01T11:31:21.703Z,101979.55
2023-02-01T11:32:22.458Z,101978.30
2023-02-01T11:33:23.309Z,101977.30
2023-02-01T11:34:23.534Z,101976.28
2023-02-01T11:36:24.555Z,101974.41
2023-02-01T11:37:24.744Z,101973.73
2023-02-01T11:38:24.999Z,101972.39
2023-02-01T11:40:30.611Z,101958.22
2023-02-01T11:41:30.920Z,101958.22
2023-02-01T11:42:30.297Z,101958.22
2023-02-01T11:44:20.051Z,101941.41
2023-02-01T11:45:20.932Z,101940.84
2023-02-01T11:46:21.529Z,101941.42
2023-02-01T11:47:28.802Z,101941.92
2023-02-01T11:48:26.812Z,101941.59
2023-02-01T11:49:22.145Z,101941.09
2023-02-01T11:50:23.928Z,101941.34
2023-02-01T11:51:23.339Z,101941.33
2023-02-01T11:52:24.198Z,101940.81
2023-02-01T11:53:25.004Z,101940.05
2023-02-01T11:54:26.069Z,101939.70
2023-02-01T11:55:26.622Z,101939.44
2023-02-01T11:56:28.144Z,101939.61
2023-02-01T11:57:27.410Z,101939.24
2023-02-01T11:58:28.266Z,101939.40
2023-02-01T11:59:28.225Z,101939.38
2023-02-01T12:00:30.226Z,101939.53
2023-02-01T12:01:29.470Z,101939.70
2023-02-01T12:02:29.717Z,101939.94
2023-02-01T12:02:38.448Z,101941.95
2023-02-01T12:03:38.552Z,101942.28
2023-02-01T12:04:38.521Z,101942.27
2023-02-01T12:05:39.101Z,101941.95
2023-02-01T12:06:39.533Z,101941.63
2023-02-01T12:07:39.730Z,101941.39
2023-02-01T12:08:39.892Z,101940.50
2023-02-01T12:09:40.297Z,101940.00
2023-02-01T12:10:41.122Z,101938.98
2023-02-01T12:11:41.380Z,101938.16
2023-02-01T12:12:41.489Z,101937.07
2023-02-01T12:13:42.848Z,101935.40
2023-02-01T12:14:42.471Z,101934.57
2023-02-01T12:15:42.822Z,101934.00
2023-02-01T12:16:43.783Z,101932.92
2023-02-01T12:17:44.112Z,101932.41
2023-02-01T12:18:45.074Z,101930.17
2023-02-01T12:19:45.174Z,101929.83
2023-02-01T12:20:45.541Z,101928.33
2023-02-01T12:21:46.149Z,101927.67
2023-02-01T12:22:46.268Z,101926.59
2023-02-01T12:23:46.765Z,101925.75
2023-02-01T12:24:46.791Z,101925.32
2023-02-01T12:25:47.169Z,101924.48
2023-02-01T12:26:47.787Z,101923.48
2023-02-01T12:27:47.831Z,101921.91
2023-02-01T12:28:48.146Z,101920.56
2023-02-01T12:29:48.413Z,101918.97
2023-02-01T12:30:49.048Z,101917.87
2023-02-01T12:31:49.556Z,101916.94
2023-02-01T12:31:58.393Z,101898.67
2023-02-01T12:32:58.327Z,101898.00
2023-02-01T12:33:59.268Z,101898.09
2023-02-01T12:34:59.924Z,101898.50
2023-02-01T12:36:00.520Z,101898.42
2023-02-01T12:37:00.964Z,101898.42
2023-02-01T12:38:01.572Z,101897.66
2023-02-01T12:39:02.405Z,101898.09
2023-02-01T12:40:03.182Z,101898.52
2023-02-01T12:41:03.958Z,101898.33
2023-02-01T12:42:04.223Z,101897.91
2023-02-01T12:43:04.842Z,101897.23
2023-02-01T12:44:05.089Z,101896.22
2023-02-01T12:45:05.824Z,101895.90
2023-02-01T12:46:06.184Z,101895.45
2023-02-01T12:47:06.883Z,101894.20
2023-02-01T12:48:07.193Z,101892.86
2023-02-01T12:49:07.328Z,101891.60
2023-02-01T12:50:07.671Z,101889.84
2023-02-01T12:51:07.870Z,101888.73
2023-02-01T12:52:08.297Z,101888.31
2023-02-01T12:53:09.009Z,101887.99
2023-02-01T12:54:09.266Z,101886.96
2023-02-01T12:55:09.431Z,101885.97
2023-02-01T12:56:10.253Z,101884.80
2023-02-01T12:57:10.295Z,101884.37
2023-02-01T12:58:11.161Z,101884.37
2023-02-01T12:59:12.066Z,101883.53
2023-02-01T13:00:13.034Z,101883.62
2023-02-01T13:01:13.510Z,101882.52
2023-02-01T13:02:13.914Z,101882.19
2023-02-01T13:03:14.150Z,101881.52
2023-02-01T13:03:32.738Z,101876.80
2023-02-01T13:04:35.062Z,101876.55
2023-02-01T13:05:33.363Z,101876.05
2023-02-01T13:06:35.949Z,101874.95
2023-02-01T13:07:34.489Z,101874.38
2023-02-01T13:08:34.638Z,101873.94
2023-02-01T13:09:37.390Z,101873.36
2023-02-01T13:10:35.346Z,101873.93
2023-02-01T13:11:36.230Z,101873.69
2023-02-01T13:12:36.582Z,101873.16
2023-02-01T13:13:38.246Z,101872.91
2023-02-01T13:14:37.864Z,101873.15
2023-02-01T13:15:38.159Z,101873.25
2023-02-01T13:16:44.322Z,101873.48
2023-02-01T13:17:39.380Z,101874.64
2023-02-01T13:18:39.540Z,101875.72
2023-02-01T13:19:40.058Z,101875.73
2023-02-01T13:20:40.445Z,101876.30
2023-02-01T13:21:41.031Z,101876.22
2023-02-01T13:22:41.826Z,101877.48
2023-02-01T13:23:41.877Z,101878.47
2023-02-01T13:24:42.514Z,101879.62
2023-02-01T13:25:42.915Z,101880.81
2023-02-01T13:26:42.874Z,101882.55
2023-02-01T13:27:43.531Z,101883.98
2023-02-01T13:28:43.597Z,101884.75
2023-02-01T13:29:44.196Z,101885.91
2023-02-01T13:30:44.390Z,101886.89
2023-02-01T13:31:45.737Z,101887.23
2023-02-01T13:33:51.719Z,101887.33
2023-02-01T13:33:53.021Z,101888.14
2023-02-01T13:34:45.152Z,101888.91
2023-02-01T13:34:55.854Z,101900.27
2023-02-01T13:35:56.719Z,101899.51
2023-02-01T13:36:56.713Z,101899.79
2023-02-01T13:37:57.546Z,101898.44
2023-02-01T13:38:58.503Z,101898.01
2023-02-01T13:39:58.819Z,101897.67
2023-02-01T13:40:59.746Z,101897.59
2023-02-01T13:42:00.512Z,101897.26
2023-02-01T13:43:00.685Z,101896.33
2023-02-01T13:44:01.426Z,101895.66
2023-02-01T13:45:01.620Z,101894.82
2023-02-01T13:46:02.365Z,101893.98
2023-02-01T13:47:02.496Z,101893.66
2023-02-01T13:48:03.226Z,101893.41
2023-02-01T13:49:04.108Z,101892.23
2023-02-01T13:50:04.418Z,101891.62
2023-02-01T13:51:04.556Z,101890.61
2023-02-01T13:52:05.062Z,101889.86
2023-02-01T13:53:05.355Z,101889.11
2023-02-01T13:54:05.511Z,101888.10
2023-02-01T13:55:05.821Z,101887.19
2023-02-01T13:56:06.466Z,101886.49
2023-02-01T13:57:06.660Z,101884.40
2023-02-01T13:58:07.523Z,101883.63
2023-02-01T13:59:07.771Z,101882.19
2023-02-01T14:00:08.140Z,101881.08
2023-02-01T14:01:08.964Z,101880.23
2023-02-01T14:02:09.974Z,101879.21
2023-02-01T14:03:10.730Z,101878.28
2023-02-01T14:04:11.399Z,101876.92
2023-02-01T14:05:11.491Z,101876.08
2023-02-01T14:06:11.620Z,101874.80
2023-02-01T14:07:11.702Z,101873.36
2023-02-01T14:07:23.955Z,101862.06
2023-02-01T14:08:24.741Z,101861.33
2023-02-01T14:09:25.702Z,101861.05
2023-02-01T14:10:28.214Z,101860.30
2023-02-01T14:11:26.576Z,101859.12
2023-02-01T14:12:26.837Z,101858.71
2023-02-01T14:13:27.180Z,101858.86
2023-02-01T14:14:27.617Z,101858.20
2023-02-01T14:15:30.899Z,101857.58
2023-02-01T14:16:28.500Z,101856.66
2023-02-01T14:17:28.765Z,101856.39
2023-02-01T14:18:28.955Z,101855.23
2023-02-01T14:19:29.458Z,101854.45
2023-02-01T14:20:30.401Z,101855.28
2023-02-01T14:21:31.226Z,101855.52
2023-02-01T14:22:31.313Z,101854.61
2023-02-01T14:23:34.180Z,101852.86
2023-02-01T14:24:32.000Z,101851.75
2023-02-01T14:25:32.113Z,101851.81
2023-02-01T14:26:32.431Z,101851.05
2023-02-01T14:27:32.673Z,101850.36
2023-02-01T14:28:33.083Z,101849.00
2023-02-01T14:29:33.903Z,101848.32
2023-02-01T14:30:34.192Z,101848.23
2023-02-01T14:31:35.016Z,101848.13
2023-02-01T14:32:35.749Z,101848.12
2023-02-01T14:33:35.878Z,101847.77
2023-02-01T14:34:36.226Z,101847.75
2023-02-01T14:35:36.477Z,101847.88
2023-02-01T14:36:36.940Z,101847.81
2023-02-01T14:37:37.419Z,101848.21
2023-02-01T14:37:48.214Z,101840.22
2023-02-01T14:38:48.840Z,101840.30
2023-02-01T14:39:49.791Z,101841.22
2023-02-01T14:40:50.146Z,101842.06
2023-02-01T14:41:53.162Z,101842.56
2023-02-01T14:42:53.855Z,101843.47
2023-02-01T14:43:51.601Z,101843.63
2023-02-01T14:44:59.536Z,101844.47
2023-02-01T14:45:53.241Z,101845.31
2023-02-01T14:46:53.419Z,101846.75
2023-02-01T14:47:56.076Z,101847.75
2023-02-01T14:48:53.646Z,101848.42
2023-02-01T14:49:55.945Z,101849.86
2023-02-01T14:50:54.037Z,101850.62
2023-02-01T14:51:57.034Z,101851.52
2023-02-01T14:52:55.519Z,101852.37
2023-02-01T14:53:56.460Z,101852.37
2023-02-01T14:54:56.823Z,101853.19
2023-02-01T14:55:57.539Z,101853.53
2023-02-01T14:56:57.709Z,101854.59
2023-02-01T14:57:58.571Z,101856.45
2023-02-01T14:58:59.504Z,101856.94
2023-02-01T15:00:00.101Z,101858.03
2023-02-01T15:01:00.357Z,101859.89
2023-02-01T15:02:00.684Z,101861.21
2023-02-01T15:03:00.963Z,101862.31
2023-02-01T15:04:00.915Z,101863.82
2023-02-01T15:05:01.241Z,101865.22
2023-02-01T15:06:01.644Z,101866.99
2023-02-01T15:07:01.803Z,101868.93
2023-02-01T15:08:02.553Z,101870.53
2023-02-01T15:09:02.676Z,101872.27
2023-02-01T15:10:03.466Z,101873.63
2023-02-01T15:11:15.518Z,101902.47
2023-02-01T15:12:16.174Z,101902.22
2023-02-01T15:13:16.653Z,101902.63
2023-02-01T15:14:17.474Z,101902.63
2023-02-01T15:15:17.830Z,101902.31
2023-02-01T15:16:18.268Z,101901.98
2023-02-01T15:17:18.663Z,101902.17
2023-02-01T15:18:19.216Z,101902.67
2023-02-01T15:19:19.438Z,101902.42
2023-02-01T15:20:19.633Z,101902.24
2023-02-01T15:21:30.469Z,101902.19
2023-02-01T15:22:21.546Z,101902.19
2023-02-01T15:23:21.932Z,101902.77
2023-02-01T15:24:22.233Z,101902.34
2023-02-01T15:25:22.927Z,101902.03
2023-02-01T15:26:23.480Z,101901.27
2023-02-01T15:27:23.656Z,101900.00
2023-02-01T15:28:23.881Z,101899.52
2023-02-01T15:29:23.977Z,101898.09
2023-02-01T15:30:24.989Z,101897.66
2023-02-01T15:31:25.482Z,101897.77
2023-02-01T15:32:25.446Z,101897.52
2023-02-01T15:33:25.671Z,101897.59
2023-02-01T15:34:26.666Z,101897.00
2023-02-01T15:35:27.222Z,101897.17
2023-02-01T15:36:27.464Z,101896.61
2023-02-01T15:37:27.878Z,101895.52
2023-02-01T15:38:28.882Z,101894.59
2023-02-01T15:39:28.893Z,101894.42
2023-02-01T15:40:29.349Z,101893.16
2023-02-01T15:41:29.809Z,101892.48
2023-02-01T15:41:38.691Z,101892.46
2023-02-01T15:42:38.814Z,101891.95
2023-02-01T15:43:39.707Z,101891.20
2023-02-01T15:44:40.125Z,101891.45
2023-02-01T15:45:42.733Z,101891.30
2023-02-01T15:46:40.953Z,101891.21
2023-02-01T15:47:41.272Z,101891.63
2023-02-01T15:48:44.574Z,101891.45
2023-02-01T15:49:42.654Z,101891.57
2023-02-01T15:50:45.196Z,101890.38
2023-02-01T15:51:43.597Z,101890.55
2023-02-01T15:52:44.634Z,101890.38
2023-02-01T15:53:45.101Z,101890.89
2023-02-01T15:54:45.553Z,101890.58
2023-02-01T15:55:45.630Z,101891.33
2023-02-01T15:56:46.574Z,101890.81
2023-02-01T15:57:46.736Z,101891.31
2023-02-01T15:58:47.034Z,101889.99
2023-02-01T15:59:47.264Z,101890.23
2023-02-01T16:00:47.357Z,101889.68
2023-02-01T16:01:47.569Z,101889.67
2023-02-01T16:02:47.620Z,101890.09
2023-02-01T16:03:47.735Z,101890.28
2023-02-01T16:04:48.150Z,101889.69
2023-02-01T16:05:48.555Z,101890.27
2023-02-01T16:06:50.920Z,101890.55
2023-02-01T16:07:49.672Z,101890.37
2023-02-01T16:08:50.376Z,101890.65
2023-02-01T16:09:50.324Z,101890.14
2023-02-01T16:10:51.310Z,101889.88
2023-02-01T16:11:51.861Z,101889.98
2023-02-01T16:12:52.160Z,101889.30
2023-02-01T16:13:52.282Z,101888.32
2023-02-01T16:14:52.514Z,101888.40
2023-02-01T16:15:04.740Z,101881.61
2023-02-01T16:16:04.917Z,101880.38
2023-02-01T16:17:05.420Z,101880.72
2023-02-01T16:18:13.475Z,101880.94
2023-02-01T16:19:08.282Z,101880.94
2023-02-01T16:20:06.413Z,101881.11
2023-02-01T16:21:07.263Z,101880.94
2023-02-01T16:22:07.945Z,101881.11
2023-02-01T16:23:08.049Z,101881.05
2023-02-01T16:24:08.954Z,101880.63
2023-02-01T16:25:09.815Z,101880.03
2023-02-01T16:26:10.068Z,101879.38
2023-02-01T16:27:10.164Z,101879.46
2023-02-01T16:28:11.189Z,101879.20
2023-02-01T16:29:11.121Z,101878.05
2023-02-01T16:30:11.389Z,101878.13
2023-02-01T16:31:12.498Z,101878.71
2023-02-01T16:32:12.451Z,101879.41
2023-02-01T16:33:13.388Z,101879.17
2023-02-01T16:34:13.453Z,101879.16
2023-02-01T16:35:13.843Z,101879.44
2023-02-01T16:36:13.895Z,101879.09
2023-02-01T16:37:14.149Z,101878.34
2023-02-01T16:38:14.964Z,101878.45
2023-02-01T16:39:15.646Z,101878.70
2023-02-01T16:40:15.767Z,101878.85
2023-02-01T16:41:16.759Z,101879.38
2023-02-01T16:42:17.638Z,101879.57
2023-02-01T16:43:18.659Z,101879.81
2023-02-01T16:44:19.367Z,101880.32
2023-02-01T16:45:19.889Z,101880.40
2023-02-01T16:46:20.748Z,101881.48
2023-02-01T16:47:23.500Z,101881.67
2023-02-01T16:47:33.689Z,101897.77
2023-02-01T16:48:33.895Z,101897.17
2023-02-01T16:49:34.196Z,101897.50
2023-02-01T16:50:34.291Z,101897.50
2023-02-01T16:51:35.140Z,101897.41
2023-02-01T16:52:35.949Z,101897.10
2023-02-01T16:53:48.335Z,101896.42
2023-02-01T16:54:36.449Z,101896.87
2023-02-01T16:55:36.607Z,101897.20
2023-02-01T16:56:36.894Z,101897.70
2023-02-01T16:57:36.868Z,101898.31
2023-02-01T16:58:37.849Z,101898.73
2023-02-01T16:59:38.174Z,101899.09
2023-02-01T17:00:39.129Z,101899.58
2023-02-01T17:01:39.314Z,101900.53
2023-02-01T17:02:41.180Z,101901.20
2023-02-01T17:03:40.596Z,101901.36
2023-02-01T17:04:41.270Z,101901.94
2023-02-01T17:05:41.539Z,101902.64
2023-02-01T17:06:42.423Z,101903.75
2023-02-01T17:07:42.526Z,101904.41
2023-02-01T17:08:42.884Z,101904.94
2023-02-01T17:09:43.797Z,101905.77
2023-02-01T17:10:43.793Z,101906.37
2023-02-01T17:11:44.372Z,101906.64
2023-02-01T17:12:44.416Z,101907.16
2023-02-01T17:13:44.776Z,101907.76
2023-02-01T17:14:45.672Z,101907.67
2023-02-01T17:15:46.557Z,101908.11
2023-02-01T17:16:46.825Z,101908.59
2023-02-01T17:17:46.853Z,101908.52
2023-02-01T17:18:50.182Z,101909.13
2023-02-01T17:19:47.774Z,101909.41
2023-02-01T17:20:48.738Z,101909.58
2023-02-01T17:21:48.826Z,101910.35
2023-02-01T17:22:04.723Z,101917.41
2023-02-01T17:23:02.781Z,101917.24
2023-02-01T17:24:03.669Z,101917.15
2023-02-01T17:25:04.478Z,101917.23
2023-02-01T17:26:04.696Z,101917.39
2023-02-01T17:27:05.578Z,101917.73
2023-02-01T17:28:06.408Z,101918.31
2023-02-01T17:29:06.758Z,101918.65
2023-02-01T17:30:07.097Z,101919.33
2023-02-01T17:31:06.977Z,101920.44
2023-02-01T17:32:08.063Z,101921.86
2023-02-01T17:33:21.604Z,101922.19
2023-02-01T17:34:09.187Z,101922.20
2023-02-01T17:35:09.545Z,101922.79
2023-02-01T17:36:09.913Z,101923.41
2023-02-01T17:37:12.450Z,101923.66
2023-02-01T17:38:10.973Z,101924.58
2023-02-01T17:39:12.303Z,101925.07
2023-02-01T17:40:14.657Z,101925.75
2023-02-01T17:41:14.781Z,101925.99
2023-02-01T17:42:12.469Z,101926.25
2023-02-01T17:43:20.506Z,101927.01
2023-02-01T17:44:15.971Z,101927.34
2023-02-01T17:45:17.078Z,101927.84
2023-02-01T17:46:15.426Z,101927.76
2023-02-01T17:47:18.699Z,101928.52
2023-02-01T17:48:18.842Z,101928.86
2023-02-01T17:49:17.278Z,101929.61
2023-02-01T17:50:20.454Z,101930.30
2023-02-01T17:51:18.322Z,101930.88
2023-02-01T17:52:18.809Z,101931.70
2023-02-01T17:53:21.979Z,101932.91
2023-02-01T17:54:20.690Z,101933.56
2023-02-01T17:55:21.799Z,101934.25
2023-02-01T17:55:31.977Z,101958.80
2023-02-01T17:56:39.944Z,101957.73
2023-02-01T17:57:40.329Z,101957.46
2023-02-01T17:58:33.093Z,101957.46
2023-02-01T17:59:34.009Z,101956.81
2023-02-01T18:00:34.078Z,101956.30
2023-02-01T18:01:34.420Z,101956.23
2023-02-01T18:02:42.555Z,101955.39
2023-02-01T18:03:35.455Z,101954.73
2023-02-01T18:04:35.995Z,101954.56
2023-02-01T18:05:36.888Z,101954.31
2023-02-01T18:06:45.473Z,101953.97
2023-02-01T18:07:38.616Z,101953.48
2023-02-01T18:08:39.404Z,101952.39
2023-02-01T18:09:39.174Z,101952.47
2023-02-01T18:10:39.449Z,101951.80
2023-02-01T18:11:39.430Z,101951.80
2023-02-01T18:12:39.632Z,101950.70
2023-02-01T18:13:40.250Z,101950.88
2023-02-01T18:14:43.135Z,101950.48
2023-02-01T18:15:41.897Z,101950.70
2023-02-01T18:16:44.630Z,101950.53
2023-02-01T18:17:43.006Z,101950.62
2023-02-01T18:19:43.523Z,101950.55
2023-02-01T18:20:47.470Z,101950.38
2023-02-01T18:21:44.964Z,101950.88
2023-02-01T18:22:47.452Z,101950.88
2023-02-01T18:23:45.312Z,101950.72
2023-02-01T18:24:45.985Z,101950.97
2023-02-01T18:24:58.232Z,101952.58
2023-02-01T18:25:59.682Z,101952.31
2023-02-01T18:26:57.626Z,101952.31
2023-02-01T18:27:58.221Z,101952.59
2023-02-01T18:28:58.728Z,101953.77
2023-02-01T18:29:58.955Z,101953.18
2023-02-01T18:30:59.580Z,101953.94
2023-02-01T18:32:00.024Z,101954.02
2023-02-01T18:33:03.103Z,101954.44
2023-02-01T18:34:01.274Z,101954.86
2023-02-01T18:35:01.752Z,101954.77
2023-02-01T18:36:02.561Z,101955.37
2023-02-01T18:37:02.416Z,101954.95
2023-02-01T18:38:03.066Z,101954.77
2023-02-01T18:39:03.058Z,101954.88
2023-02-01T18:40:03.714Z,101954.53
2023-02-01T18:41:05.104Z,101954.45
2023-02-01T18:42:07.063Z,101954.30
2023-02-01T18:43:04.600Z,101953.88
2023-02-01T18:44:05.195Z,101953.45
2023-02-01T18:45:05.554Z,101953.39
2023-02-01T18:46:13.652Z,101953.13
2023-02-01T18:47:06.374Z,101953.05
2023-02-01T18:48:10.272Z,101952.14
2023-02-01T18:49:07.615Z,101952.23
2023-02-01T18:50:10.158Z,101952.06
2023-02-01T18:51:07.975Z,101951.63
2023-02-01T18:52:08.464Z,101951.31
2023-02-01T18:53:08.437Z,101951.06
2023-02-01T18:54:08.945Z,101951.30
2023-02-01T18:55:16.915Z,101950.88
2023-02-01T18:56:09.973Z,101950.56
2023-02-01T18:57:10.947Z,101950.14
2023-02-01T18:58:37.011Z,101957.43
2023-02-01T18:59:36.990Z,101956.16
2023-02-01T19:00:35.506Z,101955.41
2023-02-01T19:01:35.833Z,101954.98
2023-02-01T19:02:38.743Z,101953.97
2023-02-01T19:03:40.952Z,101952.97
2023-02-01T19:04:38.602Z,101951.12
2023-02-01T19:05:37.783Z,101950.78
2023-02-01T19:06:45.871Z,101949.95
2023-02-01T19:07:39.130Z,101949.72
2023-02-01T19:08:39.745Z,101949.63
2023-02-01T19:09:42.866Z,101950.05
2023-02-01T19:10:41.112Z,101950.21
2023-02-01T19:11:41.668Z,101950.06
2023-02-01T19:12:42.755Z,101949.80
2023-02-01T19:13:42.852Z,101948.20
2023-02-01T19:14:43.631Z,101947.72
2023-02-01T19:15:43.884Z,101948.81
2023-02-01T19:16:46.675Z,101947.04
2023-02-01T19:17:45.234Z,101946.98
2023-02-01T19:18:45.492Z,101946.39
2023-02-01T19:19:45.705Z,101946.89
2023-02-01T19:20:46.020Z,101946.47
2023-02-01T19:21:46.843Z,101946.80
2023-02-01T19:22:47.031Z,101947.05
2023-02-01T19:23:49.386Z,101946.55
2023-02-01T19:25:32.256Z,101946.16
2023-02-01T19:26:32.788Z,101946.66
2023-02-01T19:27:35.829Z,101946.91
2023-02-01T19:28:41.462Z,101947.31
2023-02-01T19:29:35.009Z,101947.22
2023-02-01T19:30:46.910Z,101962.55
2023-02-01T19:31:55.044Z,101961.80
2023-02-01T19:32:47.915Z,101962.30
2023-02-01T19:33:50.014Z,101962.37
2023-02-01T19:34:48.420Z,101962.20
2023-02-01T19:35:48.661Z,101962.20
2023-02-01T19:36:51.136Z,101960.61
2023-02-01T19:37:49.609Z,101960.77
2023-02-01T19:38:50.465Z,101960.88
2023-02-01T19:39:50.429Z,101960.94
2023-02-01T19:40:51.511Z,101961.61
2023-02-01T19:41:51.414Z,101961.39
2023-02-01T19:42:53.540Z,101961.30
2023-02-01T19:43:52.060Z,101962.47
2023-02-01T19:44:52.934Z,101963.05
2023-02-01T19:45:53.766Z,101963.33
2023-02-01T19:46:54.427Z,101963.48
2023-02-01T19:47:55.118Z,101962.67
2023-02-01T19:48:56.062Z,101962.07
2023-02-01T19:49:56.632Z,101961.65
2023-02-01T19:50:56.902Z,101961.67
2023-02-01T19:51:57.666Z,101961.75
2023-02-01T19:52:58.064Z,101961.73
2023-02-01T19:53:58.147Z,101962.18
2023-02-01T19:54:58.549Z,101962.26
2023-02-01T19:56:01.551Z,101961.66
2023-02-01T19:56:58.815Z,101961.77
2023-02-01T19:57:59.252Z,101962.28
2023-02-01T19:59:01.623Z,101961.59
2023-02-01T20:00:00.048Z,101960.66
2023-02-01T20:00:59.307Z,101959.83
2023-02-01T20:02:00.264Z,101958.81
2023-02-01T20:03:00.666Z,101958.77
2023-02-01T20:04:01.214Z,101957.83
2023-02-01T20:04:13.099Z,101946.99
2023-02-01T20:05:13.398Z,101947.74
2023-02-01T20:06:13.430Z,101948.41
2023-02-01T20:07:13.596Z,101948.69
2023-02-01T20:08:14.356Z,101949.70
2023-02-01T20:09:14.921Z,101950.37
2023-02-01T20:10:15.177Z,101950.95
2023-02-01T20:11:15.725Z,101951.29
2023-02-01T20:12:19.337Z,101951.95
2023-02-01T20:13:18.952Z,101952.63
2023-02-01T20:14:16.851Z,101952.97
2023-02-01T20:15:16.986Z,101953.13
2023-02-01T20:16:17.053Z,101953.47
2023-02-01T20:17:17.695Z,101953.64
2023-02-01T20:18:20.412Z,101954.73
2023-02-01T20:19:19.024Z,101955.80
2023-02-01T20:20:19.727Z,101956.73
2023-02-01T20:21:20.362Z,101957.66
2023-02-01T20:22:20.915Z,101958.08
2023-02-01T20:23:21.926Z,101958.56
2023-02-01T20:24:22.215Z,101958.90
2023-02-01T20:25:23.101Z,101959.50
2023-02-01T20:26:24.592Z,101960.22
2023-02-01T20:27:27.759Z,101961.48
2023-02-01T20:28:28.217Z,101962.08
2023-02-01T20:29:26.776Z,101962.84
2023-02-01T20:30:31.277Z,101963.06
2023-02-01T20:31:27.840Z,101963.66
2023-02-01T20:32:27.822Z,101963.92
2023-02-01T20:33:43.939Z,101961.70
2023-02-01T20:34:44.570Z,101961.95
2023-02-01T20:35:45.459Z,101961.78
2023-02-01T20:36:46.114Z,101961.62
2023-02-01T20:37:46.504Z,101961.95
2023-02-01T20:38:47.285Z,101962.13
2023-02-01T20:39:47.917Z,101962.05
2023-02-01T20:40:48.724Z,101962.44
2023-02-01T20:41:49.086Z,101962.61
2023-02-01T20:42:49.181Z,101962.19
2023-02-01T20:43:50.333Z,101962.02
2023-02-01T20:44:49.475Z,101961.27
2023-02-01T20:45:50.288Z,101960.01
2023-02-01T20:46:57.878Z,101958.66
2023-02-01T20:47:51.320Z,101957.83
2023-02-01T20:48:51.775Z,101957.33
2023-02-01T20:49:55.109Z,101956.89
2023-02-01T20:50:52.689Z,101956.23
2023-02-01T20:51:52.934Z,101955.50
2023-02-01T20:52:52.901Z,101955.33
2023-02-01T20:53:55.046Z,101955.22
2023-02-01T20:54:53.690Z,101954.72
2023-02-01T20:55:54.596Z,101954.05
2023-02-01T20:56:54.711Z,101953.82
2023-02-01T20:57:55.108Z,101953.14
2023-02-01T20:58:55.699Z,101952.22
2023-02-01T20:59:58.489Z,101952.38
2023-02-01T21:00:56.614Z,101951.45
2023-02-01T21:01:57.018Z,101950.38
2023-02-01T21:03:00.307Z,101949.29
2023-02-01T21:03:57.711Z,101948.93
2023-02-01T21:05:00.607Z,101949.78
2023-02-01T21:05:58.909Z,101949.42
2023-02-01T21:06:59.164Z,101949.73
2023-02-01T21:07:59.412Z,101950.09
2023-02-01T21:09:00.306Z,101950.73
2023-02-01T21:09:11.675Z,101951.03
2023-02-01T21:10:11.575Z,101951.20
2023-02-01T21:11:11.786Z,101951.28
2023-02-01T21:12:11.953Z,101951.78
2023-02-01T21:13:12.480Z,101951.89
2023-02-01T21:14:13.178Z,101951.95
2023-02-01T21:15:13.769Z,101950.95
2023-02-01T21:16:14.133Z,101950.95
2023-02-01T21:17:14.495Z,101950.86
2023-02-01T21:18:14.892Z,101951.11
2023-02-01T21:19:15.304Z,101951.78
2023-02-01T21:20:15.643Z,101952.80
2023-02-01T21:21:16.123Z,101952.80
2023-02-01T21:22:17.006Z,101953.80
2023-02-01T21:23:17.434Z,101952.56
2023-02-01T21:24:18.168Z,101952.14
2023-02-01T21:25:18.377Z,101951.97
2023-02-01T21:26:21.737Z,101952.81
2023-02-01T21:27:19.856Z,101952.81
2023-02-01T21:28:20.124Z,101952.47
2023-02-01T21:29:23.463Z,101951.80
2023-02-01T21:30:21.926Z,101950.80
2023-02-01T21:31:21.986Z,101950.22
2023-02-01T21:32:22.447Z,101948.37
2023-02-01T21:33:22.865Z,101949.09
2023-02-01T21:34:23.410Z,101948.42
2023-02-01T21:35:27.019Z,101947.25
2023-02-01T21:36:24.574Z,101947.08
2023-02-01T21:37:24.908Z,101947.01
2023-02-01T21:38:25.038Z,101947.34
2023-02-01T21:39:25.952Z,101947.77
2023-02-01T21:40:25.906Z,101947.59
2023-02-01T21:41:26.840Z,101948.16
2023-02-01T21:42:27.192Z,101948.25
2023-02-01T21:43:27.752Z,101946.83
2023-02-01T21:44:28.321Z,101946.41
2023-02-01T21:44:38.951Z,101949.66
2023-02-01T21:45:46.142Z,101949.48
2023-02-01T21:46:40.300Z,101949.99
2023-02-01T21:47:40.775Z,101949.66
2023-02-01T21:49:05.074Z,101949.71
2023-02-01T21:49:41.388Z,101949.97
2023-02-01T21:50:43.767Z,101949.63
2023-02-01T21:51:41.846Z,101950.39
2023-02-01T21:52:41.877Z,101950.16
2023-02-01T21:53:42.418Z,101950.55
2023-02-01T21:54:42.802Z,101950.88
2023-02-01T21:55:43.113Z,101950.71
2023-02-01T21:56:44.076Z,101950.80
2023-02-01T21:57:52.565Z,101951.23
2023-02-01T21:58:45.694Z,101951.66
2023-02-01T21:59:46.389Z,101952.33
2023-02-01T22:00:54.782Z,101952.23
2023-02-01T22:01:47.389Z,101953.50
2023-02-01T22:02:47.593Z,101954.17
2023-02-01T22:03:48.072Z,101954.67
2023-02-01T22:04:48.963Z,101955.57
2023-02-01T22:05:49.782Z,101957.00
2023-02-01T22:06:50.220Z,101958.44
2023-02-01T22:07:50.859Z,101958.92
2023-02-01T22:08:51.210Z,101960.55
2023-02-01T22:09:51.644Z,101962.05
2023-02-01T22:10:54.624Z,101962.41
2023-02-01T22:11:53.060Z,101963.23
2023-02-01T22:12:53.133Z,101964.59
2023-02-01T22:13:53.433Z,101965.26
2023-02-01T22:14:56.281Z,101966.19
2023-02-01T22:15:54.518Z,101967.47
2023-02-01T22:16:54.990Z,101968.57
2023-02-01T22:17:03.751Z,101983.57
2023-02-01T22:18:03.960Z,101983.41
2023-02-01T22:19:04.666Z,101983.41
2023-02-01T22:20:05.239Z,101984.07
2023-02-01T22:21:08.336Z,101983.91
2023-02-01T22:22:06.180Z,101985.00
2023-02-01T22:23:07.853Z,101985.39
2023-02-01T22:24:07.192Z,101985.23
2023-02-01T22:25:10.059Z,101986.16
2023-02-01T22:26:08.396Z,101986.75
2023-02-01T22:27:14.193Z,101987.59
2023-02-01T22:28:32.388Z,101987.59
2023-02-01T22:29:08.861Z,101987.42
2023-02-01T22:30:09.020Z,101987.34
2023-02-01T22:31:09.550Z,101987.91
2023-02-01T22:32:10.394Z,101988.41
2023-02-01T22:33:09.444Z,101988.91
2023-02-01T22:34:10.188Z,101989.42